Sammamish, WA

4:32 AM PST on December 20, 2014 (GMT -0800)
Sahalee | Change Station
CLOSE
Current Station
Personal Weather Station
Location: Sammamish, WA
Elevation: 565 ft
Nearby Weather Stations
Active Advisory: Areal Flood Watch

Elev 565 ft 47.63 °N, 122.05 °W | Updated 1 second ago

Rain
Rain
43.7 °F
Feels Like 41 °F
N
5.0
Wind Variable Wind from ESE
Gusts 9.0 mph

Today
High -- | Low -- °F
--% Chance of Precip.
Yesterday
High -- | Low -- °F
Precip. -- in
7:53 AM 4:18 PM
Waning Crescent, 3% visible
Pressure 29.75 in
Visibility 10.0 miles
Clouds Overcast 5000 ft
Windchill 41 °F
Dew Point 41 °F
Humidity 91%
Rainfall 0.10 in
Snow Depth Not available.
UV 0 out of 12
Pollen .40 out of 12
Air Quality Not available.
Flu Activity Not available.
METAR KRNT 201153Z AUTO 11005KT 10SM -RA OVC050 07/06 A2974 RMK AO2 SLP075 P0000 60011 70011 T00720056 10083 20072 58035

More Conditions Fewer Conditions

Pressure 29.75 in
Visibility 10.0 miles
Clouds Overcast 5000 ft
Windchill 41 °F
Dew Point 41 °F
Humidity 91%
Rainfall 0.10 in
Snow Depth Not available.
UV 0 out of 12
Pollen .40 out of 12
Air Quality Not available.
Flu Activity Not available.
METAR KRNT 201153Z AUTO 11005KT 10SM -RA OVC050 07/06 A2974 RMK AO2 SLP075 P0000 60011 70011 T00720056 10083 20072 58035

More Conditions Fewer Conditions

10-Day Weather Forecast

Almanac

Astronomy

Dec. 20, 2014 Rise Set
Actual Time
Civil Twilight
Nautical Twilight
Astronomical Twilight
Moon
Length of Visible Light
Length of Day
Tomorrow will be .
, % of the Moon is Illuminated

Today's Extremes

State Highs State Lows

Community

WunderPhotos

Upload Photos

1,779,163 photos uploaded!

WunderBlogs® & News

Nearby

Air Quality

  Air Quality AQ Index Pollutant
Not available.

Snow Depth

Station Depth Elevation

Earthquake Activity

City Distance Mag. Time & Date
Minimum magnitude displayed is 2.5.

Coastal Water Temperatures

Place Temperature

Nearby Weather Stations